createdAt,value
2019-01-24T00:00:38.392Z,100668.77
2019-01-24T00:03:06.730Z,100672.25
2019-01-24T00:05:35.183Z,100674.39
2019-01-24T00:08:03.664Z,100674.72
2019-01-24T00:10:32.010Z,100679.67
2019-01-24T00:13:00.357Z,100674.88
2019-01-24T00:15:28.726Z,100678.02
2019-01-24T00:17:57.224Z,100684.78
2019-01-24T00:20:25.565Z,100694.53
2019-01-24T00:22:54.808Z,100693.69
2019-01-24T00:25:23.109Z,100693.87
2019-01-24T00:27:51.487Z,100702.30
2019-01-24T00:30:19.822Z,100714.83
2019-01-24T00:32:48.105Z,100704.11
2019-01-24T00:35:16.560Z,100702.95
2019-01-24T00:37:44.830Z,100705.91
2019-01-24T00:40:16.444Z,100709.73
2019-01-24T00:42:44.817Z,100713.17
2019-01-24T00:45:13.192Z,100712.19
2019-01-24T00:47:41.623Z,100710.53
2019-01-24T00:50:13.515Z,100727.55
2019-01-24T00:52:41.789Z,100725.23
2019-01-24T00:55:13.378Z,100722.92
2019-01-24T00:57:41.703Z,100724.25
2019-01-24T01:00:16.312Z,100722.59
2019-01-24T01:02:44.727Z,100722.91
2019-01-24T01:05:13.860Z,100724.89
2019-01-24T01:07:42.770Z,100721.41
2019-01-24T01:10:12.183Z,100722.59
2019-01-24T01:12:40.541Z,100724.09
2019-01-24T01:15:12.322Z,100731.66
2019-01-24T01:17:40.603Z,100727.55
2019-01-24T01:20:12.160Z,100734.98
2019-01-24T01:22:40.513Z,100737.45
2019-01-24T01:25:11.430Z,100739.77
2019-01-24T01:27:39.939Z,100741.92
2019-01-24T01:30:20.544Z,100743.24
2019-01-24T01:32:50.688Z,100740.91
2019-01-24T01:35:19.066Z,100748.84
2019-01-24T01:37:47.410Z,100747.86
2019-01-24T01:40:18.550Z,100749.83
2019-01-24T01:42:46.827Z,100749.16
2019-01-24T01:45:20.740Z,100752.82
2019-01-24T01:47:49.065Z,100764.38
2019-01-24T01:50:20.708Z,100763.22
2019-01-24T01:52:49.196Z,100754.95
2019-01-24T01:55:17.463Z,100758.42
2019-01-24T01:57:45.828Z,100763.56
2019-01-24T02:00:17.431Z,100761.07
2019-01-24T02:02:45.707Z,100759.58
2019-01-24T02:05:14.106Z,100767.02
2019-01-24T02:07:42.452Z,100767.86
2019-01-24T02:10:14.011Z,100768.32
2019-01-24T02:12:42.380Z,100770.80
2019-01-24T02:15:13.761Z,100770.80
2019-01-24T02:17:42.178Z,100766.67
2019-01-24T02:20:13.748Z,100766.20
2019-01-24T02:22:42.046Z,100768.00
2019-01-24T02:25:11.294Z,100767.02
2019-01-24T02:27:39.591Z,100760.73
2019-01-24T02:30:20.062Z,100764.38
2019-01-24T02:32:48.387Z,100762.23
2019-01-24T02:35:16.788Z,100767.36
2019-01-24T02:37:45.050Z,100772.63
2019-01-24T02:40:13.464Z,100782.38
2019-01-24T02:42:41.744Z,100786.02
2019-01-24T02:45:24.149Z,100787.32
2019-01-24T02:47:52.522Z,100786.35
2019-01-24T02:50:23.181Z,100780.56
2019-01-24T02:52:51.604Z,100790.30
2019-01-24T02:55:19.971Z,100782.72
2019-01-24T02:57:48.320Z,100788.48
2019-01-24T03:00:19.183Z,100789.31
2019-01-24T03:02:47.774Z,100788.64
2019-01-24T03:05:22.524Z,100789.47
2019-01-24T03:07:50.889Z,100787.83
2019-01-24T03:10:19.293Z,100779.39
2019-01-24T03:12:47.647Z,100791.30
2019-01-24T03:15:19.268Z,100789.97
2019-01-24T03:17:50.013Z,100792.13
2019-01-24T03:20:18.424Z,100791.28
2019-01-24T03:22:46.707Z,100792.78
2019-01-24T03:25:17.476Z,100786.17
2019-01-24T03:27:45.878Z,100791.64
2019-01-24T03:30:17.469Z,100793.45
2019-01-24T03:32:45.882Z,100789.13
2019-01-24T03:35:20.350Z,100786.67
2019-01-24T03:37:48.654Z,100787.98
2019-01-24T03:40:17.032Z,100786.81
2019-01-24T03:42:45.314Z,100787.83
2019-01-24T03:45:18.194Z,100792.27
2019-01-24T03:47:46.579Z,100794.27
2019-01-24T03:50:20.569Z,100792.60
2019-01-24T03:52:49.932Z,100800.52
2019-01-24T03:55:20.493Z,100798.56
2019-01-24T03:57:48.948Z,100797.08
2019-01-24T04:00:19.433Z,100790.64
2019-01-24T04:02:47.701Z,100799.20
2019-01-24T04:05:16.090Z,100799.70
2019-01-24T04:07:44.386Z,100806.48
2019-01-24T04:10:15.508Z,100814.56
2019-01-24T04:12:44.024Z,100815.09
2019-01-24T04:15:18.625Z,100819.70
2019-01-24T04:17:47.077Z,100826.64
2019-01-24T04:20:15.352Z,100824.66
2019-01-24T04:22:43.678Z,100822.00
2019-01-24T04:25:12.194Z,100832.58
2019-01-24T04:27:40.528Z,100834.06
2019-01-24T04:30:17.744Z,100834.23
2019-01-24T04:32:46.140Z,100834.39
2019-01-24T04:35:19.742Z,100836.22
2019-01-24T04:37:44.504Z,100829.28
2019-01-24T04:40:15.612Z,100824.47
2019-01-24T04:42:43.912Z,100826.45
2019-01-24T04:45:14.707Z,100825.30
2019-01-24T04:47:43.124Z,100830.44
2019-01-24T04:50:14.642Z,100832.41
2019-01-24T04:52:43.062Z,100834.84
2019-01-24T04:55:13.789Z,100843.13
2019-01-24T04:57:42.062Z,100845.59
2019-01-24T05:00:13.799Z,100848.73
2019-01-24T05:02:42.194Z,100848.73
2019-01-24T05:05:10.531Z,100851.70
2019-01-24T05:07:38.838Z,100846.78
2019-01-24T05:10:07.889Z,100856.03
2019-01-24T05:12:36.258Z,100858.15
2019-01-24T05:15:05.426Z,100862.12
2019-01-24T05:17:33.748Z,100865.22
2019-01-24T05:20:02.564Z,100868.89
2019-01-24T05:22:31.067Z,100875.14
2019-01-24T05:24:59.404Z,100872.65
2019-01-24T05:27:27.757Z,100868.50
2019-01-24T05:29:56.277Z,100874.15
2019-01-24T05:32:24.617Z,100874.30
2019-01-24T05:34:52.919Z,100874.30
2019-01-24T05:37:21.284Z,100871.53
2019-01-24T05:39:49.681Z,100876.10
2019-01-24T05:42:18.034Z,100869.17
2019-01-24T05:44:46.411Z,100870.98
2019-01-24T05:47:14.796Z,100882.55
2019-01-24T05:49:45.701Z,100863.08
2019-01-24T05:52:19.470Z,100863.42
2019-01-24T05:54:44.018Z,100868.06
2019-01-24T05:57:12.300Z,100873.80
2019-01-24T05:59:40.624Z,100873.98
2019-01-24T06:02:09.073Z,100874.13
2019-01-24T06:04:37.437Z,100875.95
2019-01-24T06:07:05.708Z,100878.88
2019-01-24T06:09:34.119Z,100881.52
2019-01-24T06:12:02.447Z,100880.91
2019-01-24T06:14:30.719Z,100882.02
2019-01-24T06:16:59.062Z,100884.50
2019-01-24T06:19:27.474Z,100876.92
2019-01-24T06:21:55.830Z,100884.87
2019-01-24T06:24:24.136Z,100888.95
2019-01-24T06:26:52.541Z,100893.75
2019-01-24T06:29:20.859Z,100898.39
2019-01-24T06:31:49.351Z,100901.11
2019-01-24T06:34:17.615Z,100908.08
2019-01-24T06:36:46.022Z,100900.17
2019-01-24T06:39:14.404Z,100897.41
2019-01-24T06:41:42.748Z,100901.69
2019-01-24T06:44:11.178Z,100903.00
2019-01-24T06:46:39.479Z,100911.25
2019-01-24T06:49:07.951Z,100911.55
2019-01-24T06:51:36.337Z,100910.42
2019-01-24T06:54:04.771Z,100913.72
2019-01-24T06:56:33.053Z,100921.13
2019-01-24T06:59:01.364Z,100925.24
2019-01-24T07:01:29.711Z,100928.05
2019-01-24T07:03:58.045Z,100933.34
2019-01-24T07:06:26.569Z,100929.74
2019-01-24T07:08:54.851Z,100937.38
2019-01-24T07:11:23.194Z,100938.00
2019-01-24T07:13:51.491Z,100941.16
2019-01-24T07:16:19.950Z,100946.95
2019-01-24T07:18:48.306Z,100948.23
2019-01-24T07:21:16.738Z,100952.88
2019-01-24T07:23:45.127Z,100955.29
2019-01-24T07:26:13.449Z,100966.38
2019-01-24T07:28:41.727Z,100966.89
2019-01-24T07:31:10.110Z,100975.87
2019-01-24T07:33:38.464Z,100985.11
2019-01-24T07:36:06.784Z,100981.88
2019-01-24T07:38:35.054Z,100989.82
2019-01-24T07:41:03.495Z,100993.30
2019-01-24T07:43:31.855Z,100990.97
2019-01-24T07:46:00.206Z,100996.63
2019-01-24T07:48:28.511Z,101001.30
2019-01-24T07:50:56.857Z,101003.60
2019-01-24T07:53:25.155Z,101002.77
2019-01-24T07:55:53.464Z,101004.41
2019-01-24T07:58:21.764Z,101016.92
2019-01-24T08:00:50.067Z,101027.80
2019-01-24T08:03:18.449Z,101037.16
2019-01-24T08:05:46.783Z,101033.26
2019-01-24T08:08:15.125Z,101037.91
2019-01-24T08:10:44.005Z,101042.22
2019-01-24T08:13:12.879Z,101036.14
2019-01-24T08:15:41.265Z,101031.23
2019-01-24T08:18:09.634Z,101041.48
2019-01-24T08:20:37.951Z,101043.92
2019-01-24T08:23:06.354Z,101048.97
2019-01-24T08:25:34.702Z,101053.02
2019-01-24T08:28:02.999Z,101050.70
2019-01-24T08:30:32.586Z,101045.73
2019-01-24T08:33:00.939Z,101039.41
2019-01-24T08:35:29.331Z,101033.47
2019-01-24T08:37:57.719Z,101039.33
2019-01-24T08:40:26.076Z,101044.17
2019-01-24T08:42:54.458Z,101035.09
2019-01-24T08:45:22.878Z,101031.08
2019-01-24T08:47:51.234Z,101033.18
2019-01-24T08:50:22.342Z,101029.39
2019-01-24T08:52:50.708Z,101033.36
2019-01-24T08:55:22.474Z,101026.44
2019-01-24T08:57:50.838Z,101028.47
2019-01-24T09:00:21.351Z,101027.30
2019-01-24T09:02:50.781Z,101032.28
2019-01-24T09:05:19.446Z,101028.95
2019-01-24T09:07:47.786Z,101030.22
2019-01-24T09:10:22.324Z,101035.19
2019-01-24T09:12:50.631Z,101027.83
2019-01-24T09:15:18.995Z,101027.02
2019-01-24T09:17:47.328Z,101032.03
2019-01-24T09:20:18.530Z,101032.13
2019-01-24T09:22:46.859Z,101026.28
2019-01-24T09:25:15.302Z,101029.77
2019-01-24T09:27:43.650Z,101034.27
2019-01-24T09:30:17.936Z,101024.59
2019-01-24T09:32:46.244Z,101025.16
2019-01-24T09:35:14.681Z,101039.01
2019-01-24T09:37:42.951Z,101035.56
2019-01-24T09:40:16.688Z,101043.63
2019-01-24T09:42:45.151Z,101046.50
2019-01-24T09:45:18.811Z,101057.24
2019-01-24T09:47:47.077Z,101053.97
2019-01-24T09:50:25.926Z,101055.38
2019-01-24T09:52:54.354Z,101058.98
2019-01-24T09:55:22.630Z,101057.16
2019-01-24T09:57:51.007Z,101064.39
2019-01-24T10:00:31.078Z,101066.86
2019-01-24T10:02:59.423Z,101072.49
2019-01-24T10:05:27.932Z,101074.69
2019-01-24T10:07:56.245Z,101072.83
2019-01-24T10:10:27.076Z,101073.84
2019-01-24T10:12:56.450Z,101080.34
2019-01-24T10:15:24.851Z,101089.28
2019-01-24T10:17:53.195Z,101079.44
2019-01-24T10:20:27.065Z,101079.37
2019-01-24T10:22:55.433Z,101076.92
2019-01-24T10:25:27.118Z,101075.60
2019-01-24T10:27:55.569Z,101091.60
2019-01-24T10:30:25.009Z,101079.39
2019-01-24T10:32:53.429Z,101084.66
2019-01-24T10:35:21.829Z,101082.98
2019-01-24T10:37:50.181Z,101075.92
2019-01-24T10:40:30.220Z,101079.59
2019-01-24T10:42:59.496Z,101081.09
2019-01-24T10:45:27.828Z,101084.73
2019-01-24T10:47:56.412Z,101087.73
2019-01-24T10:50:27.235Z,101092.86
2019-01-24T10:52:55.544Z,101092.08
2019-01-24T10:55:26.331Z,101084.80
2019-01-24T10:57:56.799Z,101083.68
2019-01-24T11:00:28.610Z,101079.59
2019-01-24T11:02:57.077Z,101087.98
2019-01-24T11:05:25.416Z,101086.06
2019-01-24T11:07:53.768Z,101080.89
2019-01-24T11:10:24.129Z,101076.59
2019-01-24T11:12:52.559Z,101076.91
2019-01-24T11:15:23.531Z,101081.27
2019-01-24T11:17:51.951Z,101080.08
2019-01-24T11:20:21.026Z,101085.33
2019-01-24T11:22:50.513Z,101083.36
2019-01-24T11:25:24.007Z,101083.28
2019-01-24T11:27:52.478Z,101083.72
2019-01-24T11:30:44.518Z,101080.36
2019-01-24T11:33:12.878Z,101084.86
2019-01-24T11:35:41.568Z,101093.22
2019-01-24T11:38:09.956Z,101098.78
2019-01-24T11:40:38.324Z,101094.66
2019-01-24T11:43:06.713Z,101100.11
2019-01-24T11:45:37.822Z,101100.15
2019-01-24T11:48:06.227Z,101103.82
2019-01-24T11:50:34.548Z,101106.44
2019-01-24T11:53:02.923Z,101108.08
2019-01-24T11:55:31.264Z,101104.73
2019-01-24T11:57:59.660Z,101111.77
2019-01-24T12:00:42.880Z,101108.05
2019-01-24T12:03:11.226Z,101105.30
2019-01-24T12:05:39.715Z,101105.59
2019-01-24T12:08:08.094Z,101111.87
2019-01-24T12:10:36.516Z,101101.14
2019-01-24T12:13:05.098Z,101098.95
2019-01-24T12:15:33.546Z,101099.98
2019-01-24T12:18:01.813Z,101109.44
2019-01-24T12:20:30.148Z,101114.38
2019-01-24T12:22:58.434Z,101104.77
2019-01-24T12:25:26.786Z,101108.55
2019-01-24T12:27:55.152Z,101111.36
2019-01-24T12:30:29.089Z,101113.64
2019-01-24T12:32:58.428Z,101102.82
2019-01-24T12:35:26.776Z,101105.09
2019-01-24T12:37:55.158Z,101117.54
2019-01-24T12:40:23.698Z,101118.92
2019-01-24T12:42:51.978Z,101119.84
2019-01-24T12:45:35.237Z,101115.11
2019-01-24T12:48:03.577Z,101120.77
2019-01-24T12:50:32.038Z,101109.47
2019-01-24T12:53:00.376Z,101109.84
2019-01-24T12:55:28.845Z,101110.66
2019-01-24T12:57:57.235Z,101099.44
2019-01-24T13:00:28.083Z,101100.38
2019-01-24T13:02:56.389Z,101097.59
2019-01-24T13:05:24.732Z,101090.64
2019-01-24T13:07:53.038Z,101091.65
2019-01-24T13:10:27.061Z,101093.28
2019-01-24T13:12:55.479Z,101103.02
2019-01-24T13:15:29.178Z,101110.22
2019-01-24T13:17:57.581Z,101119.61
2019-01-24T13:20:26.948Z,101117.69
2019-01-24T13:22:55.393Z,101119.01
2019-01-24T13:25:29.235Z,101123.50
2019-01-24T13:27:57.512Z,101118.34
2019-01-24T13:30:34.439Z,101109.16
2019-01-24T13:33:03.088Z,101098.63
2019-01-24T13:35:31.486Z,101097.31
2019-01-24T13:37:59.826Z,101105.02
2019-01-24T13:40:32.106Z,101110.83
2019-01-24T13:43:01.506Z,101124.21
2019-01-24T13:45:32.646Z,101129.89
2019-01-24T13:48:01.019Z,101125.48
2019-01-24T13:50:29.443Z,101127.47
2019-01-24T13:52:57.925Z,101135.13
2019-01-24T13:55:26.259Z,101130.81
2019-01-24T13:57:54.572Z,101120.11
2019-01-24T14:00:34.522Z,101119.41
2019-01-24T14:03:11.885Z,101111.25
2019-01-24T14:05:40.263Z,101116.02
2019-01-24T14:08:08.587Z,101109.78
2019-01-24T14:10:36.936Z,101106.03
2019-01-24T14:13:05.283Z,101107.52
2019-01-24T14:15:33.628Z,101109.30
2019-01-24T14:18:02.017Z,101096.61
2019-01-24T14:20:30.448Z,101095.25
2019-01-24T14:22:58.754Z,101098.41
2019-01-24T14:25:27.023Z,101093.94
2019-01-24T14:27:55.397Z,101103.48
2019-01-24T14:30:28.731Z,101101.11
2019-01-24T14:32:57.200Z,101108.36
2019-01-24T14:35:25.687Z,101113.53
2019-01-24T14:37:54.224Z,101121.45
2019-01-24T14:40:22.574Z,101127.14
2019-01-24T14:42:50.911Z,101131.45
2019-01-24T14:45:22.499Z,101124.44
2019-01-24T14:47:50.893Z,101120.55
2019-01-24T14:50:47.182Z,101126.24
2019-01-24T14:53:15.513Z,101138.88
2019-01-24T14:55:44.666Z,101139.20
2019-01-24T14:58:12.984Z,101148.62
2019-01-24T15:00:44.688Z,101159.87
2019-01-24T15:03:13.150Z,101158.09
2019-01-24T15:05:41.521Z,101166.41
2019-01-24T15:08:09.816Z,101165.94
2019-01-24T15:10:38.826Z,101162.80
2019-01-24T15:13:07.418Z,101165.77
2019-01-24T15:15:35.789Z,101165.09
2019-01-24T15:18:04.147Z,101170.80
2019-01-24T15:20:32.559Z,101177.69
2019-01-24T15:23:00.848Z,101179.24
2019-01-24T15:25:29.340Z,101174.27
2019-01-24T15:27:57.651Z,101179.56
2019-01-24T15:30:28.976Z,101179.08
2019-01-24T15:32:57.276Z,101188.42
2019-01-24T15:35:25.675Z,101186.10
2019-01-24T15:37:54.889Z,101184.05
2019-01-24T15:40:32.194Z,101183.70
2019-01-24T15:43:00.640Z,101181.34
2019-01-24T15:45:29.104Z,101178.72
2019-01-24T15:47:57.468Z,101183.67
2019-01-24T15:50:26.014Z,101185.78
2019-01-24T15:52:54.291Z,101181.30
2019-01-24T15:55:22.706Z,101181.34
2019-01-24T15:57:51.111Z,101180.10
2019-01-24T16:00:22.716Z,101190.82
2019-01-24T16:02:51.070Z,101191.09
2019-01-24T16:05:19.432Z,101192.16
2019-01-24T16:07:47.815Z,101192.48
2019-01-24T16:10:18.952Z,101199.52
2019-01-24T16:12:47.361Z,101195.08
2019-01-24T16:15:19.051Z,101204.11
2019-01-24T16:17:47.444Z,101206.36
2019-01-24T16:20:18.080Z,101210.19
2019-01-24T16:22:47.309Z,101209.75
2019-01-24T16:25:18.043Z,101219.36
2019-01-24T16:27:46.369Z,101219.36
2019-01-24T16:30:27.106Z,101226.02
2019-01-24T16:32:56.860Z,101232.31
2019-01-24T16:35:26.152Z,101227.17
2019-01-24T16:37:54.656Z,101233.22
2019-01-24T16:40:27.730Z,101234.80
2019-01-24T16:42:56.306Z,101233.92
2019-01-24T16:45:27.465Z,101242.90
2019-01-24T16:48:08.604Z,101250.97
2019-01-24T16:50:36.940Z,101247.49
2019-01-24T16:53:05.486Z,101244.65
2019-01-24T16:55:34.003Z,101244.46
2019-01-24T16:58:02.813Z,101246.47
2019-01-24T17:00:37.892Z,101253.92
2019-01-24T17:03:06.778Z,101254.22
2019-01-24T17:05:36.299Z,101258.23
2019-01-24T17:08:05.039Z,101259.91
2019-01-24T17:10:33.347Z,101254.02
2019-01-24T17:13:01.813Z,101253.83
2019-01-24T17:15:30.240Z,101261.91
2019-01-24T17:17:58.786Z,101261.39
2019-01-24T17:20:29.429Z,101266.05
2019-01-24T17:22:57.781Z,101276.08
2019-01-24T17:25:31.544Z,101275.81
2019-01-24T17:28:00.219Z,101281.55
2019-01-24T17:30:31.663Z,101286.43
2019-01-24T17:32:59.936Z,101284.47
2019-01-24T17:35:28.373Z,101288.03
2019-01-24T17:37:56.871Z,101284.73
2019-01-24T17:40:33.861Z,101283.12
2019-01-24T17:43:03.031Z,101279.23
2019-01-24T17:45:32.315Z,101283.39
2019-01-24T17:48:00.642Z,101286.70
2019-01-24T17:50:29.111Z,101285.47
2019-01-24T17:52:57.575Z,101294.13
2019-01-24T17:55:52.736Z,101291.62
2019-01-24T17:58:21.175Z,101296.67
2019-01-24T18:00:51.312Z,101298.08
2019-01-24T18:03:19.699Z,101301.63
2019-01-24T18:05:48.218Z,101311.05
2019-01-24T18:08:16.513Z,101317.16
2019-01-24T18:10:50.435Z,101324.02
2019-01-24T18:13:18.999Z,101334.69
2019-01-24T18:15:47.608Z,101329.41
2019-01-24T18:18:16.055Z,101329.34
2019-01-24T18:20:44.432Z,101328.06
2019-01-24T18:23:12.706Z,101317.31
2019-01-24T18:25:41.077Z,101324.83
2019-01-24T18:28:11.714Z,101329.91
2019-01-24T18:30:40.106Z,101330.95
2019-01-24T18:33:08.471Z,101337.64
2019-01-24T18:35:38.657Z,101341.19
2019-01-24T18:38:07.047Z,101344.23
2019-01-24T18:40:35.886Z,101338.84
2019-01-24T18:43:06.516Z,101339.53
2019-01-24T18:45:38.412Z,101345.64
2019-01-24T18:48:07.708Z,101349.03
2019-01-24T18:50:36.117Z,101352.08
2019-01-24T18:53:04.553Z,101352.22
2019-01-24T18:55:32.921Z,101344.12
2019-01-24T18:58:01.343Z,101347.34
2019-01-24T19:00:31.259Z,101347.52
2019-01-24T19:02:59.542Z,101348.67
2019-01-24T19:05:27.852Z,101353.62
2019-01-24T19:07:56.128Z,101360.36
2019-01-24T19:10:24.473Z,101358.72
2019-01-24T19:12:52.979Z,101357.92
2019-01-24T19:15:23.014Z,101363.91
2019-01-24T19:17:51.360Z,101366.92
2019-01-24T19:20:20.352Z,101358.58
2019-01-24T19:22:49.459Z,101359.75
2019-01-24T19:25:22.102Z,101372.31
2019-01-24T19:27:50.514Z,101373.52
2019-01-24T19:30:29.272Z,101377.30
2019-01-24T19:32:57.695Z,101373.52
2019-01-24T19:35:26.124Z,101371.36
2019-01-24T19:37:54.534Z,101390.98
2019-01-24T19:40:28.177Z,101381.27
2019-01-24T19:42:56.585Z,101375.72
2019-01-24T19:45:29.617Z,101366.30
2019-01-24T19:47:57.990Z,101361.38
2019-01-24T19:50:28.499Z,101365.73
2019-01-24T19:52:56.834Z,101368.45
2019-01-24T19:55:25.170Z,101372.00
2019-01-24T19:57:55.409Z,101371.80
2019-01-24T20:00:30.422Z,101377.32
2019-01-24T20:03:01.635Z,101370.69
2019-01-24T20:05:30.041Z,101371.29
2019-01-24T20:07:58.461Z,101368.81
2019-01-24T20:10:31.889Z,101358.83
2019-01-24T20:13:02.061Z,101357.08
2019-01-24T20:15:33.975Z,101358.34
2019-01-24T20:18:03.252Z,101357.71
2019-01-24T20:20:31.729Z,101353.63
2019-01-24T20:23:00.015Z,101264.43
2019-01-24T20:25:31.828Z,101337.55
2019-01-24T20:28:00.501Z,101374.63
2019-01-24T20:30:31.753Z,101384.27
2019-01-24T20:33:01.167Z,101381.42
2019-01-24T20:35:35.699Z,101385.66
2019-01-24T20:38:04.247Z,101388.77
2019-01-24T20:40:32.630Z,101389.81
2019-01-24T20:43:01.142Z,101381.70
2019-01-24T20:45:29.823Z,101385.77
2019-01-24T20:48:10.118Z,101386.41
2019-01-24T20:50:39.826Z,101329.12
2019-01-24T20:53:09.450Z,101381.34
2019-01-24T20:55:38.150Z,101377.70
2019-01-24T20:58:06.571Z,101376.63
2019-01-24T21:00:35.024Z,101379.83
2019-01-24T21:03:03.578Z,101384.45
2019-01-24T21:05:32.423Z,101371.83
2019-01-24T21:08:01.165Z,101383.02
2019-01-24T21:10:31.332Z,101388.28
2019-01-24T21:13:00.590Z,101384.66
2019-01-24T21:15:44.017Z,101374.83
2019-01-24T21:18:14.858Z,101380.90
2019-01-24T21:20:43.373Z,101402.98
2019-01-24T21:23:11.908Z,101396.39
2019-01-24T21:25:40.269Z,101396.72
2019-01-24T21:28:08.838Z,101389.89
2019-01-24T21:30:38.884Z,101391.53
2019-01-24T21:33:08.326Z,101387.53
2019-01-24T21:35:36.743Z,101379.94
2019-01-24T21:38:06.442Z,101373.70
2019-01-24T21:40:34.939Z,101377.86
2019-01-24T21:43:04.709Z,101386.14
2019-01-24T21:45:36.324Z,101391.33
2019-01-24T21:48:06.799Z,101389.05
2019-01-24T21:50:36.991Z,101397.44
2019-01-24T21:53:05.661Z,101396.20
2019-01-24T21:55:34.128Z,101397.80
2019-01-24T21:58:02.709Z,101401.75
2019-01-24T22:00:31.258Z,101395.92
2019-01-24T22:02:59.693Z,101394.80
2019-01-24T22:05:29.373Z,101397.36
2019-01-24T22:08:40.282Z,101397.29
2019-01-24T22:11:08.745Z,101398.00
2019-01-24T22:13:37.178Z,101411.78
2019-01-24T22:16:05.590Z,101421.77
2019-01-24T22:18:34.052Z,101423.64
2019-01-24T22:21:02.586Z,101429.55
2019-01-24T22:23:31.002Z,101423.52
2019-01-24T22:25:59.501Z,101426.52
2019-01-24T22:28:27.863Z,101423.80
2019-01-24T22:30:57.877Z,101425.72
2019-01-24T22:33:26.335Z,101391.20
2019-01-24T22:35:54.681Z,101429.12
2019-01-24T22:38:23.196Z,101424.76
2019-01-24T22:40:51.739Z,101424.68
2019-01-24T22:43:20.153Z,101426.55
2019-01-24T22:45:48.637Z,101422.28
2019-01-24T22:48:17.048Z,101419.77
2019-01-24T22:50:45.493Z,101426.00
2019-01-24T22:53:13.971Z,101431.00
2019-01-24T22:55:44.262Z,101439.14
2019-01-24T22:58:13.817Z,101444.06
2019-01-24T23:00:49.716Z,101447.81
2019-01-24T23:03:24.848Z,101440.09
2019-01-24T23:05:54.416Z,101440.37
2019-01-24T23:08:22.840Z,101443.77
2019-01-24T23:10:51.263Z,101438.30
2019-01-24T23:13:19.852Z,101440.77
2019-01-24T23:15:48.180Z,101436.61
2019-01-24T23:18:16.819Z,101443.21
2019-01-24T23:20:45.873Z,101436.14
2019-01-24T23:23:14.421Z,101435.91
2019-01-24T23:25:42.837Z,101440.30
2019-01-24T23:28:11.286Z,101430.37
2019-01-24T23:30:39.792Z,101429.74
2019-01-24T23:33:08.273Z,101423.64
2019-01-24T23:35:36.843Z,101426.08
2019-01-24T23:38:05.280Z,101431.55
2019-01-24T23:40:33.809Z,101427.32
2019-01-24T23:43:02.317Z,101431.00
2019-01-24T23:45:30.740Z,101423.23
2019-01-24T23:47:59.235Z,101415.12
2019-01-24T23:50:27.701Z,101426.48
2019-01-24T23:52:56.341Z,101435.71
2019-01-24T23:55:24.884Z,101437.10
2019-01-24T23:57:53.297Z,101443.30
